sensor_id;sensor_type;location;lat;lon;timestamp;P1;durP1;ratioP1;P2;durP2;ratioP2
10721;SDS011;5412;59.450;18.124;2022-11-20T00:01:08;1.77;;;1.60;;
10721;SDS011;5412;59.450;18.124;2022-11-20T00:03:36;1.40;;;1.30;;
10721;SDS011;5412;59.450;18.124;2022-11-20T00:06:06;1.60;;;1.50;;
10721;SDS011;5412;59.450;18.124;2022-11-20T00:08:33;2.50;;;1.77;;
10721;SDS011;5412;59.450;18.124;2022-11-20T00:11:03;2.27;;;1.60;;
10721;SDS011;5412;59.450;18.124;2022-11-20T00:13:29;2.80;;;1.60;;
10721;SDS011;5412;59.450;18.124;2022-11-20T00:15:58;2.47;;;1.73;;
10721;SDS011;5412;59.450;18.124;2022-11-20T00:18:25;1.70;;;1.60;;
10721;SDS011;5412;59.450;18.124;2022-11-20T00:20:51;2.03;;;1.47;;
10721;SDS011;5412;59.450;18.124;2022-11-20T00:23:17;2.33;;;1.50;;
10721;SDS011;5412;59.450;18.124;2022-11-20T00:25:43;3.10;;;1.50;;
10721;SDS011;5412;59.450;18.124;2022-11-20T00:28:08;1.70;;;1.60;;
10721;SDS011;5412;59.450;18.124;2022-11-20T00:30:34;1.90;;;1.40;;
10721;SDS011;5412;59.450;18.124;2022-11-20T00:33:00;1.50;;;1.37;;
10721;SDS011;5412;59.450;18.124;2022-11-20T00:35:25;3.13;;;1.70;;
10721;SDS011;5412;59.450;18.124;2022-11-20T00:37:51;3.90;;;1.27;;
10721;SDS011;5412;59.450;18.124;2022-11-20T00:40:17;1.50;;;1.30;;
10721;SDS011;5412;59.450;18.124;2022-11-20T00:42:42;1.93;;;1.27;;
10721;SDS011;5412;59.450;18.124;2022-11-20T00:45:08;1.73;;;1.50;;
10721;SDS011;5412;59.450;18.124;2022-11-20T00:47:34;1.87;;;1.53;;
10721;SDS011;5412;59.450;18.124;2022-11-20T00:49:59;2.33;;;1.27;;
10721;SDS011;5412;59.450;18.124;2022-11-20T00:52:25;3.00;;;1.50;;
10721;SDS011;5412;59.450;18.124;2022-11-20T00:54:50;1.70;;;1.30;;
10721;SDS011;5412;59.450;18.124;2022-11-20T00:57:16;2.83;;;1.40;;
10721;SDS011;5412;59.450;18.124;2022-11-20T00:59:42;1.53;;;1.43;;
10721;SDS011;5412;59.450;18.124;2022-11-20T01:02:07;1.97;;;1.37;;
10721;SDS011;5412;59.450;18.124;2022-11-20T01:04:33;1.43;;;1.33;;
10721;SDS011;5412;59.450;18.124;2022-11-20T01:06:59;3.77;;;1.50;;
10721;SDS011;5412;59.450;18.124;2022-11-20T01:09:24;1.60;;;1.50;;
10721;SDS011;5412;59.450;18.124;2022-11-20T01:11:50;2.87;;;1.40;;
10721;SDS011;5412;59.450;18.124;2022-11-20T01:14:16;2.00;;;1.43;;
10721;SDS011;5412;59.450;18.124;2022-11-20T01:16:44;2.07;;;1.47;;
10721;SDS011;5412;59.450;18.124;2022-11-20T01:19:14;1.87;;;1.50;;
10721;SDS011;5412;59.450;18.124;2022-11-20T01:21:48;1.40;;;1.30;;
10721;SDS011;5412;59.450;18.124;2022-11-20T01:24:16;1.40;;;1.30;;
10721;SDS011;5412;59.450;18.124;2022-11-20T01:26:44;3.13;;;1.40;;
10721;SDS011;5412;59.450;18.124;2022-11-20T01:29:30;1.30;;;1.20;;
10721;SDS011;5412;59.450;18.124;2022-11-20T01:31:55;1.63;;;1.50;;
10721;SDS011;5412;59.450;18.124;2022-11-20T01:34:21;2.57;;;1.60;;
10721;SDS011;5412;59.450;18.124;2022-11-20T01:36:47;1.50;;;1.40;;
10721;SDS011;5412;59.450;18.124;2022-11-20T01:39:24;1.57;;;1.40;;
10721;SDS011;5412;59.450;18.124;2022-11-20T01:41:52;1.37;;;1.27;;
10721;SDS011;5412;59.450;18.124;2022-11-20T01:44:49;1.63;;;1.40;;
10721;SDS011;5412;59.450;18.124;2022-11-20T01:47:21;2.73;;;1.33;;
10721;SDS011;5412;59.450;18.124;2022-11-20T01:50:05;1.40;;;1.30;;
10721;SDS011;5412;59.450;18.124;2022-11-20T01:52:39;1.60;;;1.50;;
10721;SDS011;5412;59.450;18.124;2022-11-20T01:55:17;1.83;;;1.43;;
10721;SDS011;5412;59.450;18.124;2022-11-20T01:57:46;1.30;;;1.20;;
10721;SDS011;5412;59.450;18.124;2022-11-20T02:00:14;1.83;;;1.40;;
10721;SDS011;5412;59.450;18.124;2022-11-20T02:02:42;1.60;;;1.50;;
10721;SDS011;5412;59.450;18.124;2022-11-20T02:05:22;1.70;;;1.53;;
10721;SDS011;5412;59.450;18.124;2022-11-20T02:08:04;1.57;;;1.40;;
10721;SDS011;5412;59.450;18.124;2022-11-20T02:10:31;1.90;;;1.70;;
10721;SDS011;5412;59.450;18.124;2022-11-20T02:12:58;1.80;;;1.37;;
10721;SDS011;5412;59.450;18.124;2022-11-20T02:15:42;1.50;;;1.37;;
10721;SDS011;5412;59.450;18.124;2022-11-20T02:18:09;1.57;;;1.47;;
10721;SDS011;5412;59.450;18.124;2022-11-20T02:20:36;1.60;;;1.50;;
10721;SDS011;5412;59.450;18.124;2022-11-20T02:23:08;1.37;;;1.23;;
10721;SDS011;5412;59.450;18.124;2022-11-20T02:25:55;1.67;;;1.40;;
10721;SDS011;5412;59.450;18.124;2022-11-20T02:28:22;1.80;;;1.60;;
10721;SDS011;5412;59.450;18.124;2022-11-20T02:30:49;1.30;;;1.20;;
10721;SDS011;5412;59.450;18.124;2022-11-20T02:33:16;1.70;;;1.60;;
10721;SDS011;5412;59.450;18.124;2022-11-20T02:35:43;1.67;;;1.50;;
10721;SDS011;5412;59.450;18.124;2022-11-20T02:38:12;2.93;;;1.60;;
10721;SDS011;5412;59.450;18.124;2022-11-20T02:40:40;3.33;;;1.57;;
10721;SDS011;5412;59.450;18.124;2022-11-20T02:43:06;2.13;;;1.67;;
10721;SDS011;5412;59.450;18.124;2022-11-20T02:45:32;2.70;;;1.50;;
10721;SDS011;5412;59.450;18.124;2022-11-20T02:47:58;1.40;;;1.30;;
10721;SDS011;5412;59.450;18.124;2022-11-20T02:50:23;2.27;;;1.40;;
10721;SDS011;5412;59.450;18.124;2022-11-20T02:52:49;3.43;;;1.63;;
10721;SDS011;5412;59.450;18.124;2022-11-20T02:55:15;1.40;;;1.30;;
10721;SDS011;5412;59.450;18.124;2022-11-20T02:57:40;2.50;;;1.30;;
10721;SDS011;5412;59.450;18.124;2022-11-20T03:00:06;1.50;;;1.40;;
10721;SDS011;5412;59.450;18.124;2022-11-20T03:02:32;2.13;;;1.33;;
10721;SDS011;5412;59.450;18.124;2022-11-20T03:04:58;1.50;;;1.40;;
10721;SDS011;5412;59.450;18.124;2022-11-20T03:07:24;1.47;;;1.37;;
10721;SDS011;5412;59.450;18.124;2022-11-20T03:09:50;2.23;;;1.50;;
10721;SDS011;5412;59.450;18.124;2022-11-20T03:12:15;2.80;;;1.57;;
10721;SDS011;5412;59.450;18.124;2022-11-20T03:14:41;1.60;;;1.40;;
10721;SDS011;5412;59.450;18.124;2022-11-20T03:17:07;1.20;;;1.10;;
10721;SDS011;5412;59.450;18.124;2022-11-20T03:19:33;1.30;;;1.17;;
10721;SDS011;5412;59.450;18.124;2022-11-20T03:21:59;2.10;;;1.40;;
10721;SDS011;5412;59.450;18.124;2022-11-20T03:24:25;1.40;;;1.30;;
10721;SDS011;5412;59.450;18.124;2022-11-20T03:26:51;1.40;;;1.30;;
10721;SDS011;5412;59.450;18.124;2022-11-20T03:29:17;1.30;;;1.20;;
10721;SDS011;5412;59.450;18.124;2022-11-20T03:31:43;2.20;;;1.73;;
10721;SDS011;5412;59.450;18.124;2022-11-20T03:34:09;1.33;;;1.23;;
10721;SDS011;5412;59.450;18.124;2022-11-20T03:36:39;1.47;;;1.23;;
10721;SDS011;5412;59.450;18.124;2022-11-20T03:39:06;2.23;;;1.73;;
10721;SDS011;5412;59.450;18.124;2022-11-20T03:41:35;1.43;;;1.33;;
10721;SDS011;5412;59.450;18.124;2022-11-20T03:44:04;3.40;;;1.40;;
10721;SDS011;5412;59.450;18.124;2022-11-20T03:46:31;1.40;;;1.30;;
10721;SDS011;5412;59.450;18.124;2022-11-20T03:48:58;1.30;;;1.10;;
10721;SDS011;5412;59.450;18.124;2022-11-20T03:51:27;1.70;;;1.03;;
10721;SDS011;5412;59.450;18.124;2022-11-20T03:53:55;1.40;;;1.30;;
10721;SDS011;5412;59.450;18.124;2022-11-20T03:56:23;1.43;;;1.30;;
10721;SDS011;5412;59.450;18.124;2022-11-20T03:58:51;1.30;;;1.20;;
10721;SDS011;5412;59.450;18.124;2022-11-20T04:01:21;1.40;;;1.23;;
10721;SDS011;5412;59.450;18.124;2022-11-20T04:03:49;1.90;;;1.37;;
10721;SDS011;5412;59.450;18.124;2022-11-20T04:06:19;1.77;;;1.10;;
10721;SDS011;5412;59.450;18.124;2022-11-20T04:08:47;1.90;;;1.30;;
10721;SDS011;5412;59.450;18.124;2022-11-20T04:13:39;1.10;;;1.00;;
10721;SDS011;5412;59.450;18.124;2022-11-20T04:16:06;2.00;;;1.20;;
10721;SDS011;5412;59.450;18.124;2022-11-20T04:18:32;1.53;;;1.23;;
10721;SDS011;5412;59.450;18.124;2022-11-20T04:20:58;1.40;;;1.30;;
10721;SDS011;5412;59.450;18.124;2022-11-20T04:23:25;1.20;;;1.00;;
10721;SDS011;5412;59.450;18.124;2022-11-20T04:25:51;1.67;;;1.10;;
10721;SDS011;5412;59.450;18.124;2022-11-20T04:28:17;1.97;;;1.20;;
10721;SDS011;5412;59.450;18.124;2022-11-20T04:30:42;1.70;;;1.17;;
10721;SDS011;5412;59.450;18.124;2022-11-20T04:33:08;1.87;;;0.97;;
10721;SDS011;5412;59.450;18.124;2022-11-20T04:35:35;1.20;;;1.10;;
10721;SDS011;5412;59.450;18.124;2022-11-20T04:38:01;1.30;;;1.07;;
10721;SDS011;5412;59.450;18.124;2022-11-20T04:40:27;1.67;;;1.20;;
10721;SDS011;5412;59.450;18.124;2022-11-20T04:42:54;1.30;;;1.10;;
10721;SDS011;5412;59.450;18.124;2022-11-20T04:45:20;1.37;;;1.17;;
10721;SDS011;5412;59.450;18.124;2022-11-20T04:47:46;1.37;;;1.27;;
10721;SDS011;5412;59.450;18.124;2022-11-20T04:50:11;2.90;;;1.07;;
10721;SDS011;5412;59.450;18.124;2022-11-20T04:52:37;1.13;;;1.03;;
10721;SDS011;5412;59.450;18.124;2022-11-20T04:55:03;1.00;;;1.00;;
10721;SDS011;5412;59.450;18.124;2022-11-20T04:57:29;2.07;;;1.10;;
10721;SDS011;5412;59.450;18.124;2022-11-20T04:59:54;2.03;;;1.00;;
10721;SDS011;5412;59.450;18.124;2022-11-20T05:02:20;1.40;;;1.30;;
10721;SDS011;5412;59.450;18.124;2022-11-20T05:04:46;3.03;;;1.40;;
10721;SDS011;5412;59.450;18.124;2022-11-20T05:07:11;1.30;;;1.20;;
10721;SDS011;5412;59.450;18.124;2022-11-20T05:09:37;1.83;;;1.20;;
10721;SDS011;5412;59.450;18.124;2022-11-20T05:12:03;1.30;;;1.20;;
10721;SDS011;5412;59.450;18.124;2022-11-20T05:14:29;1.47;;;1.37;;
10721;SDS011;5412;59.450;18.124;2022-11-20T05:16:55;1.23;;;1.20;;
10721;SDS011;5412;59.450;18.124;2022-11-20T05:19:20;1.30;;;1.10;;
10721;SDS011;5412;59.450;18.124;2022-11-20T05:21:46;1.50;;;1.30;;
10721;SDS011;5412;59.450;18.124;2022-11-20T05:24:12;1.33;;;1.23;;
10721;SDS011;5412;59.450;18.124;2022-11-20T05:26:37;1.10;;;1.00;;
10721;SDS011;5412;59.450;18.124;2022-11-20T05:29:03;1.20;;;1.10;;
10721;SDS011;5412;59.450;18.124;2022-11-20T05:31:29;1.33;;;1.03;;
10721;SDS011;5412;59.450;18.124;2022-11-20T05:33:55;0.90;;;0.90;;
10721;SDS011;5412;59.450;18.124;2022-11-20T05:36:22;1.43;;;1.20;;
10721;SDS011;5412;59.450;18.124;2022-11-20T05:38:48;1.20;;;0.90;;
10721;SDS011;5412;59.450;18.124;2022-11-20T05:41:15;1.33;;;1.13;;
10721;SDS011;5412;59.450;18.124;2022-11-20T05:43:43;1.27;;;1.10;;
10721;SDS011;5412;59.450;18.124;2022-11-20T05:46:10;1.07;;;1.03;;
10721;SDS011;5412;59.450;18.124;2022-11-20T05:48:38;0.97;;;0.93;;
10721;SDS011;5412;59.450;18.124;2022-11-20T05:51:06;1.27;;;1.17;;
10721;SDS011;5412;59.450;18.124;2022-11-20T05:53:33;1.20;;;1.10;;
10721;SDS011;5412;59.450;18.124;2022-11-20T05:58:35;1.57;;;1.00;;
10721;SDS011;5412;59.450;18.124;2022-11-20T06:01:12;1.97;;;1.10;;
10721;SDS011;5412;59.450;18.124;2022-11-20T06:03:38;1.13;;;1.00;;
10721;SDS011;5412;59.450;18.124;2022-11-20T06:06:05;1.20;;;1.10;;
10721;SDS011;5412;59.450;18.124;2022-11-20T06:08:31;1.97;;;1.00;;
10721;SDS011;5412;59.450;18.124;2022-11-20T06:10:58;0.90;;;0.90;;
10721;SDS011;5412;59.450;18.124;2022-11-20T06:13:27;1.07;;;0.90;;
10721;SDS011;5412;59.450;18.124;2022-11-20T06:15:53;1.10;;;1.00;;
10721;SDS011;5412;59.450;18.124;2022-11-20T06:18:19;2.10;;;1.20;;
10721;SDS011;5412;59.450;18.124;2022-11-20T06:20:45;1.70;;;1.57;;
10721;SDS011;5412;59.450;18.124;2022-11-20T06:23:11;1.20;;;1.10;;
10721;SDS011;5412;59.450;18.124;2022-11-20T06:25:37;1.30;;;1.20;;
10721;SDS011;5412;59.450;18.124;2022-11-20T06:28:07;2.53;;;1.23;;
10721;SDS011;5412;59.450;18.124;2022-11-20T06:30:34;4.70;;;1.20;;
10721;SDS011;5412;59.450;18.124;2022-11-20T06:33:00;1.50;;;1.40;;
10721;SDS011;5412;59.450;18.124;2022-11-20T06:35:26;1.23;;;1.13;;
10721;SDS011;5412;59.450;18.124;2022-11-20T06:37:52;2.47;;;1.30;;
10721;SDS011;5412;59.450;18.124;2022-11-20T06:40:17;1.30;;;1.10;;
10721;SDS011;5412;59.450;18.124;2022-11-20T06:42:43;4.07;;;1.30;;
10721;SDS011;5412;59.450;18.124;2022-11-20T06:45:09;2.53;;;1.23;;
10721;SDS011;5412;59.450;18.124;2022-11-20T06:47:35;1.90;;;1.40;;
10721;SDS011;5412;59.450;18.124;2022-11-20T06:50:01;2.50;;;1.67;;
10721;SDS011;5412;59.450;18.124;2022-11-20T06:52:26;2.40;;;1.00;;
10721;SDS011;5412;59.450;18.124;2022-11-20T06:54:52;1.67;;;1.00;;
10721;SDS011;5412;59.450;18.124;2022-11-20T06:57:18;1.57;;;1.37;;
10721;SDS011;5412;59.450;18.124;2022-11-20T06:59:43;1.20;;;1.10;;
10721;SDS011;5412;59.450;18.124;2022-11-20T07:02:12;1.97;;;1.40;;
10721;SDS011;5412;59.450;18.124;2022-11-20T07:04:38;1.23;;;1.10;;
10721;SDS011;5412;59.450;18.124;2022-11-20T07:07:04;2.20;;;1.20;;
10721;SDS011;5412;59.450;18.124;2022-11-20T07:09:31;1.23;;;1.13;;
10721;SDS011;5412;59.450;18.124;2022-11-20T07:11:57;1.20;;;1.10;;
10721;SDS011;5412;59.450;18.124;2022-11-20T07:14:23;1.37;;;1.13;;
10721;SDS011;5412;59.450;18.124;2022-11-20T07:16:48;1.20;;;1.10;;
10721;SDS011;5412;59.450;18.124;2022-11-20T07:19:17;1.20;;;1.10;;
10721;SDS011;5412;59.450;18.124;2022-11-20T07:21:42;1.60;;;1.50;;
10721;SDS011;5412;59.450;18.124;2022-11-20T07:24:08;0.97;;;0.90;;
10721;SDS011;5412;59.450;18.124;2022-11-20T07:26:34;2.00;;;1.20;;
10721;SDS011;5412;59.450;18.124;2022-11-20T07:29:00;1.27;;;1.17;;
10721;SDS011;5412;59.450;18.124;2022-11-20T07:31:26;1.80;;;1.20;;
10721;SDS011;5412;59.450;18.124;2022-11-20T07:33:51;3.33;;;1.30;;
10721;SDS011;5412;59.450;18.124;2022-11-20T07:36:17;1.00;;;1.00;;
10721;SDS011;5412;59.450;18.124;2022-11-20T07:38:43;1.50;;;1.00;;
10721;SDS011;5412;59.450;18.124;2022-11-20T07:41:08;3.53;;;1.20;;
10721;SDS011;5412;59.450;18.124;2022-11-20T07:43:34;1.70;;;1.17;;
10721;SDS011;5412;59.450;18.124;2022-11-20T07:46:00;1.23;;;1.10;;
10721;SDS011;5412;59.450;18.124;2022-11-20T07:48:25;3.93;;;1.37;;
10721;SDS011;5412;59.450;18.124;2022-11-20T07:50:54;1.10;;;1.00;;
10721;SDS011;5412;59.450;18.124;2022-11-20T07:53:20;3.20;;;1.10;;
10721;SDS011;5412;59.450;18.124;2022-11-20T07:55:47;1.60;;;1.10;;
10721;SDS011;5412;59.450;18.124;2022-11-20T07:58:13;0.80;;;0.80;;
10721;SDS011;5412;59.450;18.124;2022-11-20T08:00:39;1.20;;;1.10;;
10721;SDS011;5412;59.450;18.124;2022-11-20T08:03:05;1.53;;;1.10;;
10721;SDS011;5412;59.450;18.124;2022-11-20T08:05:31;1.33;;;1.00;;
10721;SDS011;5412;59.450;18.124;2022-11-20T08:07:57;0.73;;;0.73;;
10721;SDS011;5412;59.450;18.124;2022-11-20T08:10:23;1.77;;;1.20;;
10721;SDS011;5412;59.450;18.124;2022-11-20T08:12:50;1.13;;;1.03;;
10721;SDS011;5412;59.450;18.124;2022-11-20T08:15:38;0.83;;;0.80;;
10721;SDS011;5412;59.450;18.124;2022-11-20T08:18:08;0.90;;;0.90;;
10721;SDS011;5412;59.450;18.124;2022-11-20T08:20:36;1.40;;;1.03;;
10721;SDS011;5412;59.450;18.124;2022-11-20T08:23:04;0.80;;;0.80;;
10721;SDS011;5412;59.450;18.124;2022-11-20T08:25:34;1.00;;;0.97;;
10721;SDS011;5412;59.450;18.124;2022-11-20T08:28:02;1.37;;;0.90;;
10721;SDS011;5412;59.450;18.124;2022-11-20T08:30:29;2.23;;;1.10;;
10721;SDS011;5412;59.450;18.124;2022-11-20T08:32:59;3.20;;;0.93;;
10721;SDS011;5412;59.450;18.124;2022-11-20T08:35:26;0.80;;;0.80;;
10721;SDS011;5412;59.450;18.124;2022-11-20T08:37:52;4.10;;;0.80;;
10721;SDS011;5412;59.450;18.124;2022-11-20T08:40:21;0.77;;;0.77;;
10721;SDS011;5412;59.450;18.124;2022-11-20T08:42:47;1.30;;;0.67;;
10721;SDS011;5412;59.450;18.124;2022-11-20T08:45:13;6.10;;;1.00;;
10721;SDS011;5412;59.450;18.124;2022-11-20T08:47:42;1.63;;;1.20;;
10721;SDS011;5412;59.450;18.124;2022-11-20T08:50:12;1.40;;;1.00;;
10721;SDS011;5412;59.450;18.124;2022-11-20T08:52:42;1.00;;;0.90;;
10721;SDS011;5412;59.450;18.124;2022-11-20T08:55:10;0.70;;;0.70;;
10721;SDS011;5412;59.450;18.124;2022-11-20T08:57:37;0.73;;;0.73;;
10721;SDS011;5412;59.450;18.124;2022-11-20T09:00:04;1.50;;;0.80;;
10721;SDS011;5412;59.450;18.124;2022-11-20T09:02:31;0.60;;;0.60;;
10721;SDS011;5412;59.450;18.124;2022-11-20T09:04:57;0.60;;;0.60;;
10721;SDS011;5412;59.450;18.124;2022-11-20T09:07:23;1.10;;;0.80;;
10721;SDS011;5412;59.450;18.124;2022-11-20T09:09:49;1.20;;;0.87;;
10721;SDS011;5412;59.450;18.124;2022-11-20T09:12:15;0.70;;;0.70;;
10721;SDS011;5412;59.450;18.124;2022-11-20T09:14:43;0.57;;;0.57;;
10721;SDS011;5412;59.450;18.124;2022-11-20T09:17:09;0.63;;;0.63;;
10721;SDS011;5412;59.450;18.124;2022-11-20T09:19:38;0.60;;;0.60;;
10721;SDS011;5412;59.450;18.124;2022-11-20T09:22:04;0.50;;;0.50;;
10721;SDS011;5412;59.450;18.124;2022-11-20T09:24:30;1.00;;;0.90;;
10721;SDS011;5412;59.450;18.124;2022-11-20T09:26:55;1.03;;;0.80;;
10721;SDS011;5412;59.450;18.124;2022-11-20T09:29:21;2.03;;;0.80;;
10721;SDS011;5412;59.450;18.124;2022-11-20T09:31:47;0.80;;;0.80;;
10721;SDS011;5412;59.450;18.124;2022-11-20T09:34:12;1.83;;;0.63;;
10721;SDS011;5412;59.450;18.124;2022-11-20T09:36:38;0.90;;;0.80;;
10721;SDS011;5412;59.450;18.124;2022-11-20T09:39:05;0.77;;;0.70;;
10721;SDS011;5412;59.450;18.124;2022-11-20T09:44:22;0.70;;;0.67;;
10721;SDS011;5412;59.450;18.124;2022-11-20T09:49:32;0.70;;;0.70;;
10721;SDS011;5412;59.450;18.124;2022-11-20T09:52:50;1.30;;;0.80;;
10721;SDS011;5412;59.450;18.124;2022-11-20T09:55:21;1.23;;;1.03;;
10721;SDS011;5412;59.450;18.124;2022-11-20T09:57:47;1.00;;;0.90;;
10721;SDS011;5412;59.450;18.124;2022-11-20T10:00:15;4.70;;;1.10;;
10721;SDS011;5412;59.450;18.124;2022-11-20T10:02:51;2.10;;;1.30;;
10721;SDS011;5412;59.450;18.124;2022-11-20T10:05:46;0.97;;;0.90;;
10721;SDS011;5412;59.450;18.124;2022-11-20T10:10:53;2.50;;;1.03;;
10721;SDS011;5412;59.450;18.124;2022-11-20T10:18:51;1.77;;;1.17;;
10721;SDS011;5412;59.450;18.124;2022-11-20T10:30:09;2.43;;;0.93;;
10721;SDS011;5412;59.450;18.124;2022-11-20T10:32:39;2.27;;;1.10;;
10721;SDS011;5412;59.450;18.124;2022-11-20T10:35:25;1.33;;;0.70;;
10721;SDS011;5412;59.450;18.124;2022-11-20T10:37:59;2.07;;;1.50;;
10721;SDS011;5412;59.450;18.124;2022-11-20T10:50:32;1.77;;;1.10;;
10721;SDS011;5412;59.450;18.124;2022-11-20T10:53:11;1.77;;;1.40;;
10721;SDS011;5412;59.450;18.124;2022-11-20T10:56:16;2.07;;;1.30;;
10721;SDS011;5412;59.450;18.124;2022-11-20T11:02:00;1.03;;;1.00;;
10721;SDS011;5412;59.450;18.124;2022-11-20T11:07:06;1.20;;;1.10;;
10721;SDS011;5412;59.450;18.124;2022-11-20T11:09:43;0.87;;;0.87;;
10721;SDS011;5412;59.450;18.124;2022-11-20T11:12:12;1.33;;;1.23;;
10721;SDS011;5412;59.450;18.124;2022-11-20T11:14:48;3.03;;;1.00;;
10721;SDS011;5412;59.450;18.124;2022-11-20T11:17:25;0.80;;;0.80;;
10721;SDS011;5412;59.450;18.124;2022-11-20T11:20:04;1.23;;;0.87;;
10721;SDS011;5412;59.450;18.124;2022-11-20T11:22:46;1.30;;;0.70;;
10721;SDS011;5412;59.450;18.124;2022-11-20T11:25:29;1.40;;;0.90;;
10721;SDS011;5412;59.450;18.124;2022-11-20T11:28:02;1.57;;;0.90;;
10721;SDS011;5412;59.450;18.124;2022-11-20T11:30:51;1.00;;;0.90;;
10721;SDS011;5412;59.450;18.124;2022-11-20T11:35:54;1.20;;;1.10;;
10721;SDS011;5412;59.450;18.124;2022-11-20T11:38:41;1.90;;;0.90;;
10721;SDS011;5412;59.450;18.124;2022-11-20T11:41:28;2.07;;;1.00;;
10721;SDS011;5412;59.450;18.124;2022-11-20T11:43:58;1.77;;;1.00;;
10721;SDS011;5412;59.450;18.124;2022-11-20T11:46:52;1.90;;;0.90;;
10721;SDS011;5412;59.450;18.124;2022-11-20T11:49:23;1.10;;;1.00;;
10721;SDS011;5412;59.450;18.124;2022-11-20T11:57:05;1.27;;;1.00;;
10721;SDS011;5412;59.450;18.124;2022-11-20T12:02:37;1.43;;;1.00;;
10721;SDS011;5412;59.450;18.124;2022-11-20T12:05:27;1.07;;;0.90;;
10721;SDS011;5412;59.450;18.124;2022-11-20T12:08:29;1.03;;;0.70;;
10721;SDS011;5412;59.450;18.124;2022-11-20T12:11:06;1.17;;;0.83;;
10721;SDS011;5412;59.450;18.124;2022-11-20T12:13:56;3.17;;;1.00;;
10721;SDS011;5412;59.450;18.124;2022-11-20T12:16:35;0.97;;;0.93;;
10721;SDS011;5412;59.450;18.124;2022-11-20T12:19:03;1.03;;;1.03;;
10721;SDS011;5412;59.450;18.124;2022-11-20T12:32:30;1.67;;;0.97;;
10721;SDS011;5412;59.450;18.124;2022-11-20T12:44:19;0.80;;;0.70;;
10721;SDS011;5412;59.450;18.124;2022-11-20T12:50:08;0.90;;;0.90;;
10721;SDS011;5412;59.450;18.124;2022-11-20T12:55:23;0.90;;;0.80;;
10721;SDS011;5412;59.450;18.124;2022-11-20T12:58:05;0.90;;;0.90;;
10721;SDS011;5412;59.450;18.124;2022-11-20T13:00:42;0.80;;;0.80;;
10721;SDS011;5412;59.450;18.124;2022-11-20T13:06:10;1.33;;;0.87;;
10721;SDS011;5412;59.450;18.124;2022-11-20T13:08:41;1.77;;;0.90;;
10721;SDS011;5412;59.450;18.124;2022-11-20T13:11:37;1.43;;;1.13;;
10721;SDS011;5412;59.450;18.124;2022-11-20T13:16:38;1.30;;;1.20;;
10721;SDS011;5412;59.450;18.124;2022-11-20T13:19:13;3.67;;;1.50;;
10721;SDS011;5412;59.450;18.124;2022-11-20T13:21:45;1.90;;;1.53;;
10721;SDS011;5412;59.450;18.124;2022-11-20T13:24:21;2.00;;;1.50;;
10721;SDS011;5412;59.450;18.124;2022-11-20T13:29:40;1.80;;;1.70;;
10721;SDS011;5412;59.450;18.124;2022-11-20T13:32:16;3.27;;;1.70;;
10721;SDS011;5412;59.450;18.124;2022-11-20T13:34:52;2.70;;;1.60;;
10721;SDS011;5412;59.450;18.124;2022-11-20T13:37:27;1.97;;;1.60;;
10721;SDS011;5412;59.450;18.124;2022-11-20T13:42:35;2.90;;;1.60;;
10721;SDS011;5412;59.450;18.124;2022-11-20T13:45:09;1.80;;;1.60;;
10721;SDS011;5412;59.450;18.124;2022-11-20T13:47:49;1.83;;;1.40;;
10721;SDS011;5412;59.450;18.124;2022-11-20T13:50:16;2.63;;;1.20;;
10721;SDS011;5412;59.450;18.124;2022-11-20T13:58:33;1.47;;;1.37;;
10721;SDS011;5412;59.450;18.124;2022-11-20T14:01:19;2.10;;;1.30;;
10721;SDS011;5412;59.450;18.124;2022-11-20T14:03:47;1.87;;;1.33;;
10721;SDS011;5412;59.450;18.124;2022-11-20T14:06:16;1.37;;;1.27;;
10721;SDS011;5412;59.450;18.124;2022-11-20T14:08:53;4.43;;;1.50;;
10721;SDS011;5412;59.450;18.124;2022-11-20T14:11:21;2.70;;;1.27;;
10721;SDS011;5412;59.450;18.124;2022-11-20T14:16:23;1.83;;;1.00;;
10721;SDS011;5412;59.450;18.124;2022-11-20T14:18:49;1.90;;;1.30;;
10721;SDS011;5412;59.450;18.124;2022-11-20T14:21:22;1.60;;;1.30;;
10721;SDS011;5412;59.450;18.124;2022-11-20T14:23:52;2.30;;;1.40;;
10721;SDS011;5412;59.450;18.124;2022-11-20T14:26:18;1.13;;;1.03;;
10721;SDS011;5412;59.450;18.124;2022-11-20T14:28:47;3.30;;;1.47;;
10721;SDS011;5412;59.450;18.124;2022-11-20T14:31:22;1.30;;;1.20;;
10721;SDS011;5412;59.450;18.124;2022-11-20T14:33:49;1.30;;;1.20;;
10721;SDS011;5412;59.450;18.124;2022-11-20T14:36:20;1.33;;;1.17;;
10721;SDS011;5412;59.450;18.124;2022-11-20T14:38:48;1.23;;;1.13;;
10721;SDS011;5412;59.450;18.124;2022-11-20T14:41:19;1.97;;;1.40;;
10721;SDS011;5412;59.450;18.124;2022-11-20T14:43:53;2.57;;;1.40;;
10721;SDS011;5412;59.450;18.124;2022-11-20T14:46:22;2.57;;;1.40;;
10721;SDS011;5412;59.450;18.124;2022-11-20T14:48:55;1.70;;;1.30;;
10721;SDS011;5412;59.450;18.124;2022-11-20T14:51:29;1.80;;;1.23;;
10721;SDS011;5412;59.450;18.124;2022-11-20T14:53:55;1.57;;;1.23;;
10721;SDS011;5412;59.450;18.124;2022-11-20T14:56:22;1.97;;;1.43;;
10721;SDS011;5412;59.450;18.124;2022-11-20T14:58:58;1.93;;;1.50;;
10721;SDS011;5412;59.450;18.124;2022-11-20T15:01:27;1.60;;;1.50;;
10721;SDS011;5412;59.450;18.124;2022-11-20T15:04:04;2.70;;;1.60;;
10721;SDS011;5412;59.450;18.124;2022-11-20T15:06:34;6.30;;;1.83;;
10721;SDS011;5412;59.450;18.124;2022-11-20T15:09:02;1.33;;;1.17;;
10721;SDS011;5412;59.450;18.124;2022-11-20T15:11:30;1.53;;;1.43;;
10721;SDS011;5412;59.450;18.124;2022-11-20T15:14:01;3.27;;;2.40;;
10721;SDS011;5412;59.450;18.124;2022-11-20T15:16:29;1.83;;;1.37;;
10721;SDS011;5412;59.450;18.124;2022-11-20T15:18:55;1.97;;;1.50;;
10721;SDS011;5412;59.450;18.124;2022-11-20T15:21:21;2.97;;;1.67;;
10721;SDS011;5412;59.450;18.124;2022-11-20T15:23:47;2.60;;;1.50;;
10721;SDS011;5412;59.450;18.124;2022-11-20T15:26:14;2.53;;;1.90;;
10721;SDS011;5412;59.450;18.124;2022-11-20T15:28:46;4.07;;;1.70;;
10721;SDS011;5412;59.450;18.124;2022-11-20T15:31:15;6.33;;;1.80;;
10721;SDS011;5412;59.450;18.124;2022-11-20T15:33:42;2.17;;;1.60;;
10721;SDS011;5412;59.450;18.124;2022-11-20T15:36:11;2.53;;;1.33;;
10721;SDS011;5412;59.450;18.124;2022-11-20T15:38:37;2.13;;;1.30;;
10721;SDS011;5412;59.450;18.124;2022-11-20T15:41:03;1.97;;;1.50;;
10721;SDS011;5412;59.450;18.124;2022-11-20T15:43:29;3.10;;;1.63;;
10721;SDS011;5412;59.450;18.124;2022-11-20T15:45:56;2.60;;;1.43;;
10721;SDS011;5412;59.450;18.124;2022-11-20T15:53:36;1.93;;;1.60;;
10721;SDS011;5412;59.450;18.124;2022-11-20T15:56:02;4.43;;;1.93;;
10721;SDS011;5412;59.450;18.124;2022-11-20T15:58:28;6.07;;;1.43;;
10721;SDS011;5412;59.450;18.124;2022-11-20T16:00:54;2.93;;;1.93;;
10721;SDS011;5412;59.450;18.124;2022-11-20T16:03:20;2.30;;;1.70;;
10721;SDS011;5412;59.450;18.124;2022-11-20T16:05:46;2.17;;;1.70;;
10721;SDS011;5412;59.450;18.124;2022-11-20T16:08:11;2.43;;;1.57;;
10721;SDS011;5412;59.450;18.124;2022-11-20T16:10:38;1.73;;;1.60;;
10721;SDS011;5412;59.450;18.124;2022-11-20T16:13:04;1.80;;;1.40;;
10721;SDS011;5412;59.450;18.124;2022-11-20T16:15:55;3.17;;;1.83;;
10721;SDS011;5412;59.450;18.124;2022-11-20T16:18:24;1.73;;;1.50;;
10721;SDS011;5412;59.450;18.124;2022-11-20T16:20:55;1.53;;;1.40;;
10721;SDS011;5412;59.450;18.124;2022-11-20T16:23:23;1.53;;;1.20;;
10721;SDS011;5412;59.450;18.124;2022-11-20T16:25:50;2.50;;;1.53;;
10721;SDS011;5412;59.450;18.124;2022-11-20T16:28:16;1.73;;;1.50;;
10721;SDS011;5412;59.450;18.124;2022-11-20T16:30:43;1.43;;;1.30;;
10721;SDS011;5412;59.450;18.124;2022-11-20T16:33:13;1.80;;;1.60;;
10721;SDS011;5412;59.450;18.124;2022-11-20T16:35:40;3.97;;;1.60;;
10721;SDS011;5412;59.450;18.124;2022-11-20T16:38:06;2.20;;;1.53;;
10721;SDS011;5412;59.450;18.124;2022-11-20T16:40:32;1.50;;;1.40;;
10721;SDS011;5412;59.450;18.124;2022-11-20T16:42:59;2.10;;;1.50;;
10721;SDS011;5412;59.450;18.124;2022-11-20T16:45:33;1.50;;;1.40;;